SAVC/CRD METAR and TAF weather

Enter ICAO airport designator
Station Type Date Time Source
SAVC METAR 2019/06/27 04:00 UTC NOAA

SAVC 270400Z 18006KT 9999 BKN018 SCT080 06/04 Q0992


Station Type Date Time Source
SAVC Decoded METAR 2019/06/27 04:00 UTC NOAA

Comodoro Rivadavia Aerodrome, Argentina (SAVC) 45-47S 067-30W 46M
Jun 27, 2019 - 12:00 AM EDT / 2019.06.27 0400 UTC
Wind: from the S (180 degrees) at 7 MPH (6 KT):0
Visibility: greater than 7 mile(s):0
Sky conditions: mostly cloudy
Temperature: 42 F (6 C)
Dew Point: 39 F (4 C)
Relative Humidity: 86%
Pressure (altimeter): 29.29 in. Hg (0992 hPa)
ob: SAVC 270400Z 18006KT 9999 BKN018 SCT080 06/04 Q0992
cycle: 4

Station Type Date Time Source
SAVC TAF 2019/06/27 00:21 UTC NOAA

TAF COR SAVC 262310Z 2700/2724 29020G35KT CAVOK TX10/2719Z TN02/2711Z
BECMG 2701/2703 22015KT 9999 BKN009 OVC035
TEMPO 2703/2707 8000 RA
BECMG 2714/2717 20010KT 9999 BKN025

Example: see airport list